sensor_id;sensor_type;location;lat;lon;timestamp;pressure;altitude;pressure_sealevel;temperature;humidity
20624;BME280;10471;42.736;23.346;2023-04-15T00:01:01;94804.06;;;6.69;100.00
20624;BME280;10471;42.736;23.346;2023-04-15T00:03:27;94804.81;;;6.75;100.00
20624;BME280;10471;42.736;23.346;2023-04-15T00:05:53;94812.41;;;6.86;100.00
20624;BME280;10471;42.736;23.346;2023-04-15T00:08:19;94831.22;;;6.88;100.00
20624;BME280;10471;42.736;23.346;2023-04-15T00:10:44;94834.38;;;6.90;100.00
20624;BME280;10471;42.736;23.346;2023-04-15T00:13:11;94845.13;;;6.94;100.00
20624;BME280;10471;42.736;23.346;2023-04-15T00:15:36;94830.72;;;6.91;100.00
20624;BME280;10471;42.736;23.346;2023-04-15T00:18:02;94824.41;;;6.92;100.00
20624;BME280;10471;42.736;23.346;2023-04-15T00:20:28;94810.81;;;6.95;100.00
20624;BME280;10471;42.736;23.346;2023-04-15T00:22:54;94812.88;;;6.98;100.00
20624;BME280;10471;42.736;23.346;2023-04-15T00:25:19;94825.72;;;7.00;100.00
20624;BME280;10471;42.736;23.346;2023-04-15T00:27:44;94811.84;;;6.99;100.00
20624;BME280;10471;42.736;23.346;2023-04-15T00:30:10;94802.41;;;6.93;100.00
20624;BME280;10471;42.736;23.346;2023-04-15T00:32:36;94807.66;;;6.93;100.00
20624;BME280;10471;42.736;23.346;2023-04-15T00:35:01;94808.97;;;6.91;100.00
20624;BME280;10471;42.736;23.346;2023-04-15T00:37:27;94810.81;;;6.85;100.00
20624;BME280;10471;42.736;23.346;2023-04-15T00:39:52;94819.44;;;6.91;100.00
20624;BME280;10471;42.736;23.346;2023-04-15T00:42:18;94831.25;;;6.78;100.00
20624;BME280;10471;42.736;23.346;2023-04-15T00:44:45;94840.97;;;6.73;100.00
20624;BME280;10471;42.736;23.346;2023-04-15T00:47:11;94829.19;;;6.75;100.00
20624;BME280;10471;42.736;23.346;2023-04-15T00:49:36;94832.31;;;6.62;100.00
20624;BME280;10471;42.736;23.346;2023-04-15T00:52:02;94828.69;;;6.53;100.00
20624;BME280;10471;42.736;23.346;2023-04-15T00:54:28;94817.66;;;6.66;100.00
20624;BME280;10471;42.736;23.346;2023-04-15T00:56:53;94828.13;;;6.76;100.00
20624;BME280;10471;42.736;23.346;2023-04-15T00:59:19;94826.81;;;6.79;100.00
20624;BME280;10471;42.736;23.346;2023-04-15T01:01:45;94828.13;;;6.81;100.00
20624;BME280;10471;42.736;23.346;2023-04-15T01:04:11;94826.03;;;6.73;100.00
20624;BME280;10471;42.736;23.346;2023-04-15T01:06:37;94829.69;;;6.67;100.00
20624;BME280;10471;42.736;23.346;2023-04-15T01:09:02;94832.59;;;6.61;100.00
20624;BME280;10471;42.736;23.346;2023-04-15T01:11:28;94839.16;;;6.53;100.00
20624;BME280;10471;42.736;23.346;2023-04-15T01:13:55;94828.69;;;6.53;100.00
20624;BME280;10471;42.736;23.346;2023-04-15T01:16:22;94834.69;;;6.54;100.00
20624;BME280;10471;42.736;23.346;2023-04-15T01:18:48;94837.03;;;6.36;100.00
20624;BME280;10471;42.736;23.346;2023-04-15T01:21:13;94837.31;;;6.39;100.00
20624;BME280;10471;42.736;23.346;2023-04-15T01:23:39;94834.19;;;6.37;100.00
20624;BME280;10471;42.736;23.346;2023-04-15T01:26:05;94832.34;;;6.33;100.00
20624;BME280;10471;42.736;23.346;2023-04-15T01:28:32;94831.81;;;6.21;100.00
20624;BME280;10471;42.736;23.346;2023-04-15T01:31:14;94825.03;;;6.25;100.00
20624;BME280;10471;42.736;23.346;2023-04-15T01:33:41;94826.06;;;6.19;100.00
20624;BME280;10471;42.736;23.346;2023-04-15T01:36:08;94827.09;;;5.93;100.00
20624;BME280;10471;42.736;23.346;2023-04-15T01:38:34;94823.97;;;6.06;100.00
20624;BME280;10471;42.736;23.346;2023-04-15T01:41:00;94824.50;;;6.08;100.00
20624;BME280;10471;42.736;23.346;2023-04-15T01:43:25;94830.22;;;6.05;100.00
20624;BME280;10471;42.736;23.346;2023-04-15T01:45:51;94817.69;;;6.07;100.00
20624;BME280;10471;42.736;23.346;2023-04-15T01:48:17;94821.63;;;6.14;100.00
20624;BME280;10471;42.736;23.346;2023-04-15T01:50:43;94827.63;;;6.10;100.00
20624;BME280;10471;42.736;23.346;2023-04-15T01:53:09;94843.31;;;6.05;100.00
20624;BME280;10471;42.736;23.346;2023-04-15T01:55:35;94851.66;;;5.92;100.00
20624;BME280;10471;42.736;23.346;2023-04-15T01:58:01;94861.56;;;5.85;100.00
20624;BME280;10471;42.736;23.346;2023-04-15T02:00:27;94858.44;;;5.78;100.00
20624;BME280;10471;42.736;23.346;2023-04-15T02:02:52;94860.44;;;5.61;100.00
20624;BME280;10471;42.736;23.346;2023-04-15T02:05:18;94852.56;;;5.46;100.00
20624;BME280;10471;42.736;23.346;2023-04-15T02:07:44;94866.09;;;5.38;100.00
20624;BME280;10471;42.736;23.346;2023-04-15T02:10:09;94853.53;;;5.30;100.00
20624;BME280;10471;42.736;23.346;2023-04-15T02:12:37;94854.03;;;5.27;100.00
20624;BME280;10471;42.736;23.346;2023-04-15T02:15:02;94852.97;;;5.23;100.00
20624;BME280;10471;42.736;23.346;2023-04-15T02:17:28;94852.97;;;5.23;100.00
20624;BME280;10471;42.736;23.346;2023-04-15T02:19:54;94856.56;;;5.13;100.00
20624;BME280;10471;42.736;23.346;2023-04-15T02:22:20;94856.09;;;5.16;100.00
20624;BME280;10471;42.736;23.346;2023-04-15T02:24:46;94863.59;;;5.07;100.00
20624;BME280;10471;42.736;23.346;2023-04-15T02:27:15;94855.19;;;4.95;100.00
20624;BME280;10471;42.736;23.346;2023-04-15T02:29:42;94851.22;;;4.88;100.00
20624;BME280;10471;42.736;23.346;2023-04-15T02:32:08;94849.84;;;4.75;100.00
20624;BME280;10471;42.736;23.346;2023-04-15T02:34:33;94850.28;;;4.62;100.00
20624;BME280;10471;42.736;23.346;2023-04-15T02:36:59;94855.25;;;4.64;100.00
20624;BME280;10471;42.736;23.346;2023-04-15T02:39:24;94859.13;;;4.61;100.00
20624;BME280;10471;42.736;23.346;2023-04-15T02:41:50;94867.94;;;4.51;100.00
20624;BME280;10471;42.736;23.346;2023-04-15T02:44:18;94872.34;;;4.50;100.00
20624;BME280;10471;42.736;23.346;2023-04-15T02:46:47;94871.03;;;4.48;100.00
20624;BME280;10471;42.736;23.346;2023-04-15T02:49:16;94871.22;;;4.36;100.00
20624;BME280;10471;42.736;23.346;2023-04-15T02:51:42;94867.00;;;4.30;100.00
20624;BME280;10471;42.736;23.346;2023-04-15T02:54:07;94859.69;;;4.27;100.00
20624;BME280;10471;42.736;23.346;2023-04-15T02:56:33;94864.34;;;4.25;100.00
20624;BME280;10471;42.736;23.346;2023-04-15T02:58:58;94865.06;;;4.21;100.00
20624;BME280;10471;42.736;23.346;2023-04-15T03:01:24;94860.97;;;4.25;100.00
20624;BME280;10471;42.736;23.346;2023-04-15T03:03:50;94869.56;;;4.25;100.00
20624;BME280;10471;42.736;23.346;2023-04-15T03:06:15;94868.78;;;4.25;100.00
20624;BME280;10471;42.736;23.346;2023-04-15T03:08:41;94863.28;;;4.21;100.00
20624;BME280;10471;42.736;23.346;2023-04-15T03:11:06;94863.75;;;4.18;100.00
20624;BME280;10471;42.736;23.346;2023-04-15T03:13:32;94857.22;;;4.16;100.00
20624;BME280;10471;42.736;23.346;2023-04-15T03:15:58;94853.84;;;4.15;100.00
20624;BME280;10471;42.736;23.346;2023-04-15T03:18:23;94861.94;;;3.92;100.00
20624;BME280;10471;42.736;23.346;2023-04-15T03:20:48;94865.06;;;3.89;100.00
20624;BME280;10471;42.736;23.346;2023-04-15T03:23:14;94868.19;;;3.91;100.00
20624;BME280;10471;42.736;23.346;2023-04-15T03:25:39;94866.63;;;3.90;100.00
20624;BME280;10471;42.736;23.346;2023-04-15T03:28:05;94878.03;;;3.85;100.00
20624;BME280;10471;42.736;23.346;2023-04-15T03:30:30;94887.47;;;3.90;100.00
20624;BME280;10471;42.736;23.346;2023-04-15T03:32:56;94898.88;;;3.85;100.00
20624;BME280;10471;42.736;23.346;2023-04-15T03:35:21;94907.13;;;3.77;100.00
20624;BME280;10471;42.736;23.346;2023-04-15T03:37:46;94909.56;;;3.62;100.00
20624;BME280;10471;42.736;23.346;2023-04-15T03:40:13;94914.19;;;3.55;100.00
20624;BME280;10471;42.736;23.346;2023-04-15T03:42:38;94903.78;;;3.55;100.00
20624;BME280;10471;42.736;23.346;2023-04-15T03:45:05;94913.34;;;3.71;100.00
20624;BME280;10471;42.736;23.346;2023-04-15T03:47:31;94919.31;;;3.71;100.00
20624;BME280;10471;42.736;23.346;2023-04-15T03:49:57;94914.94;;;3.77;100.00
20624;BME280;10471;42.736;23.346;2023-04-15T03:52:22;94912.81;;;3.74;100.00
20624;BME280;10471;42.736;23.346;2023-04-15T03:54:47;94920.53;;;3.64;100.00
20624;BME280;10471;42.736;23.346;2023-04-15T03:57:13;94925.00;;;3.68;100.00
20624;BME280;10471;42.736;23.346;2023-04-15T03:59:38;94919.66;;;3.80;100.00
20624;BME280;10471;42.736;23.346;2023-04-15T04:02:03;94913.53;;;3.90;100.00
20624;BME280;10471;42.736;23.346;2023-04-15T04:04:29;94913.91;;;3.99;100.00
20624;BME280;10471;42.736;23.346;2023-04-15T04:06:54;94908.94;;;4.02;100.00
20624;BME280;10471;42.736;23.346;2023-04-15T04:09:20;94909.00;;;4.07;100.00
20624;BME280;10471;42.736;23.346;2023-04-15T04:11:45;94926.22;;;4.08;100.00
20624;BME280;10471;42.736;23.346;2023-04-15T04:14:11;94915.13;;;4.18;100.00
20624;BME280;10471;42.736;23.346;2023-04-15T04:16:36;94922.00;;;4.29;100.00
20624;BME280;10471;42.736;23.346;2023-04-15T04:19:01;94915.78;;;4.35;100.00
20624;BME280;10471;42.736;23.346;2023-04-15T04:21:27;94927.28;;;4.39;100.00
20624;BME280;10471;42.736;23.346;2023-04-15T04:23:52;94928.13;;;4.44;100.00
20624;BME280;10471;42.736;23.346;2023-04-15T04:26:18;94928.97;;;4.50;100.00
20624;BME280;10471;42.736;23.346;2023-04-15T04:28:43;94930.53;;;4.51;100.00
20624;BME280;10471;42.736;23.346;2023-04-15T04:31:09;94937.91;;;4.58;100.00
20624;BME280;10471;42.736;23.346;2023-04-15T04:33:35;94942.34;;;4.58;100.00
20624;BME280;10471;42.736;23.346;2023-04-15T04:36:00;94946.28;;;4.60;100.00
20624;BME280;10471;42.736;23.346;2023-04-15T04:38:26;94938.78;;;4.69;100.00
20624;BME280;10471;42.736;23.346;2023-04-15T04:40:51;94942.97;;;4.75;100.00
20624;BME280;10471;42.736;23.346;2023-04-15T04:43:16;94944.47;;;4.66;100.00
20624;BME280;10471;42.736;23.346;2023-04-15T04:45:42;94956.13;;;4.53;100.00
20624;BME280;10471;42.736;23.346;2023-04-15T04:48:07;94943.31;;;4.52;100.00
20624;BME280;10471;42.736;23.346;2023-04-15T04:50:34;94952.22;;;4.56;100.00
20624;BME280;10471;42.736;23.346;2023-04-15T04:53:01;94951.25;;;4.62;100.00
20624;BME280;10471;42.736;23.346;2023-04-15T04:55:26;94955.50;;;4.73;100.00
20624;BME280;10471;42.736;23.346;2023-04-15T04:57:52;94958.94;;;4.78;100.00
20624;BME280;10471;42.736;23.346;2023-04-15T05:00:17;94962.16;;;4.90;100.00
20624;BME280;10471;42.736;23.346;2023-04-15T05:02:43;94965.28;;;4.87;100.00
20624;BME280;10471;42.736;23.346;2023-04-15T05:05:09;94955.44;;;4.99;100.00
20624;BME280;10471;42.736;23.346;2023-04-15T05:07:36;94961.94;;;4.97;100.00
20624;BME280;10471;42.736;23.346;2023-04-15T05:10:02;94961.00;;;5.13;100.00
20624;BME280;10471;42.736;23.346;2023-04-15T05:12:28;94965.00;;;5.25;100.00
20624;BME280;10471;42.736;23.346;2023-04-15T05:14:53;94971.66;;;5.47;100.00
20624;BME280;10471;42.736;23.346;2023-04-15T05:17:18;94978.00;;;5.56;100.00
20624;BME280;10471;42.736;23.346;2023-04-15T05:19:44;94974.75;;;5.81;100.00
20624;BME280;10471;42.736;23.346;2023-04-15T05:22:09;94972.97;;;5.96;100.00
20624;BME280;10471;42.736;23.346;2023-04-15T05:24:35;94978.25;;;6.06;100.00
20624;BME280;10471;42.736;23.346;2023-04-15T05:27:00;94972.53;;;6.19;100.00
20624;BME280;10471;42.736;23.346;2023-04-15T05:29:26;94989.03;;;6.29;100.00
20624;BME280;10471;42.736;23.346;2023-04-15T05:31:51;94982.81;;;6.45;100.00
20624;BME280;10471;42.736;23.346;2023-04-15T05:34:17;94979.44;;;6.59;100.00
20624;BME280;10471;42.736;23.346;2023-04-15T05:36:42;94978.41;;;6.75;100.00
20624;BME280;10471;42.736;23.346;2023-04-15T05:39:07;94968.72;;;6.96;100.00
20624;BME280;10471;42.736;23.346;2023-04-15T05:41:33;94974.47;;;7.22;100.00
20624;BME280;10471;42.736;23.346;2023-04-15T05:43:58;94968.94;;;7.39;100.00
20624;BME280;10471;42.736;23.346;2023-04-15T05:46:24;94973.09;;;7.55;100.00
20624;BME280;10471;42.736;23.346;2023-04-15T05:48:49;94972.53;;;7.73;100.00
20624;BME280;10471;42.736;23.346;2023-04-15T05:51:14;94977.72;;;7.87;100.00
20624;BME280;10471;42.736;23.346;2023-04-15T05:53:40;94985.53;;;8.02;100.00
20624;BME280;10471;42.736;23.346;2023-04-15T05:56:06;94979.22;;;8.18;100.00
20624;BME280;10471;42.736;23.346;2023-04-15T05:58:31;94984.94;;;8.30;100.00
20624;BME280;10471;42.736;23.346;2023-04-15T06:00:57;94995.38;;;8.40;100.00
20624;BME280;10471;42.736;23.346;2023-04-15T06:03:22;94996.34;;;8.54;100.00
20624;BME280;10471;42.736;23.346;2023-04-15T06:05:48;94988.94;;;8.66;100.00
20624;BME280;10471;42.736;23.346;2023-04-15T06:08:14;94990.41;;;8.82;100.00
20624;BME280;10471;42.736;23.346;2023-04-15T06:10:39;94997.47;;;8.86;100.00
20624;BME280;10471;42.736;23.346;2023-04-15T06:13:05;94999.69;;;9.08;100.00
20624;BME280;10471;42.736;23.346;2023-04-15T06:15:31;95005.38;;;9.19;100.00
20624;BME280;10471;42.736;23.346;2023-04-15T06:17:56;95008.38;;;9.36;100.00
20624;BME280;10471;42.736;23.346;2023-04-15T06:20:22;95006.69;;;9.50;100.00
20624;BME280;10471;42.736;23.346;2023-04-15T06:22:48;95008.13;;;9.66;100.00
20624;BME280;10471;42.736;23.346;2023-04-15T06:25:13;95012.94;;;9.82;100.00
20624;BME280;10471;42.736;23.346;2023-04-15T06:27:39;95015.44;;;9.97;100.00
20624;BME280;10471;42.736;23.346;2023-04-15T06:30:05;95019.53;;;10.08;100.00
20624;BME280;10471;42.736;23.346;2023-04-15T06:32:31;95029.34;;;10.03;100.00
20624;BME280;10471;42.736;23.346;2023-04-15T06:34:57;95034.28;;;10.09;100.00
20624;BME280;10471;42.736;23.346;2023-04-15T06:37:22;95035.28;;;10.13;100.00
20624;BME280;10471;42.736;23.346;2023-04-15T06:39:47;95025.84;;;10.31;100.00
20624;BME280;10471;42.736;23.346;2023-04-15T06:42:13;95026.75;;;10.45;100.00
20624;BME280;10471;42.736;23.346;2023-04-15T06:44:38;95027.19;;;10.51;100.00
20624;BME280;10471;42.736;23.346;2023-04-15T06:47:04;95032.91;;;10.58;100.00
20624;BME280;10471;42.736;23.346;2023-04-15T06:49:30;95033.53;;;10.69;100.00
20624;BME280;10471;42.736;23.346;2023-04-15T06:51:55;95025.44;;;10.84;100.00
20624;BME280;10471;42.736;23.346;2023-04-15T06:54:21;95028.66;;;10.99;100.00
20624;BME280;10471;42.736;23.346;2023-04-15T06:56:46;95034.13;;;11.03;100.00
20624;BME280;10471;42.736;23.346;2023-04-15T06:59:12;95030.06;;;11.10;100.00
20624;BME280;10471;42.736;23.346;2023-04-15T07:01:39;95036.19;;;11.24;100.00
20624;BME280;10471;42.736;23.346;2023-04-15T07:04:05;95031.25;;;11.36;100.00
20624;BME280;10471;42.736;23.346;2023-04-15T07:06:30;95021.41;;;11.41;100.00
20624;BME280;10471;42.736;23.346;2023-04-15T07:08:57;95018.88;;;11.50;100.00
20624;BME280;10471;42.736;23.346;2023-04-15T07:11:22;95021.31;;;11.65;100.00
20624;BME280;10471;42.736;23.346;2023-04-15T07:13:48;95018.78;;;11.73;100.00
20624;BME280;10471;42.736;23.346;2023-04-15T07:16:13;95017.84;;;11.82;100.00
20624;BME280;10471;42.736;23.346;2023-04-15T07:18:38;95024.31;;;11.90;100.00
20624;BME280;10471;42.736;23.346;2023-04-15T07:21:04;95024.88;;;12.00;100.00
20624;BME280;10471;42.736;23.346;2023-04-15T07:23:29;95026.47;;;12.01;100.00
20624;BME280;10471;42.736;23.346;2023-04-15T07:25:55;95024.13;;;12.13;100.00
20624;BME280;10471;42.736;23.346;2023-04-15T07:28:21;95022.00;;;12.29;100.00
20624;BME280;10471;42.736;23.346;2023-04-15T07:30:47;95010.44;;;12.38;100.00
20624;BME280;10471;42.736;23.346;2023-04-15T07:33:13;95018.56;;;12.55;100.00
20624;BME280;10471;42.736;23.346;2023-04-15T07:35:38;95014.72;;;12.61;100.00
20624;BME280;10471;42.736;23.346;2023-04-15T07:38:03;95020.19;;;12.78;100.00
20624;BME280;10471;42.736;23.346;2023-04-15T07:40:29;95027.59;;;13.03;100.00
20624;BME280;10471;42.736;23.346;2023-04-15T07:42:57;95024.25;;;13.10;100.00
20624;BME280;10471;42.736;23.346;2023-04-15T07:45:23;95023.25;;;13.20;100.00
20624;BME280;10471;42.736;23.346;2023-04-15T07:47:48;95017.72;;;13.30;100.00
20624;BME280;10471;42.736;23.346;2023-04-15T07:50:15;95025.72;;;13.38;100.00
20624;BME280;10471;42.736;23.346;2023-04-15T07:52:42;95034.03;;;13.45;100.00
20624;BME280;10471;42.736;23.346;2023-04-15T07:55:08;95038.47;;;13.58;100.00
20624;BME280;10471;42.736;23.346;2023-04-15T07:57:34;95036.53;;;13.72;100.00
20624;BME280;10471;42.736;23.346;2023-04-15T08:00:01;95037.09;;;13.82;100.00
20624;BME280;10471;42.736;23.346;2023-04-15T08:02:28;95041.00;;;13.85;100.00
20624;BME280;10471;42.736;23.346;2023-04-15T08:04:53;95045.28;;;14.03;96.31
20624;BME280;10471;42.736;23.346;2023-04-15T08:07:19;95048.06;;;14.20;100.00
20624;BME280;10471;42.736;23.346;2023-04-15T08:09:45;95051.16;;;14.43;100.00
20624;BME280;10471;42.736;23.346;2023-04-15T08:12:11;95047.31;;;14.66;100.00
20624;BME280;10471;42.736;23.346;2023-04-15T08:14:38;95048.78;;;14.89;96.83
20624;BME280;10471;42.736;23.346;2023-04-15T08:17:04;95051.78;;;15.13;90.92
20624;BME280;10471;42.736;23.346;2023-04-15T08:19:30;95042.31;;;15.37;88.94
20624;BME280;10471;42.736;23.346;2023-04-15T08:21:55;95039.66;;;15.46;78.80
20624;BME280;10471;42.736;23.346;2023-04-15T08:24:21;95045.88;;;15.33;68.50
20624;BME280;10471;42.736;23.346;2023-04-15T08:26:46;95042.72;;;15.14;70.11
20624;BME280;10471;42.736;23.346;2023-04-15T08:29:12;95040.13;;;15.22;66.73
20624;BME280;10471;42.736;23.346;2023-04-15T08:31:37;95040.28;;;15.26;68.74
20624;BME280;10471;42.736;23.346;2023-04-15T08:34:03;95038.56;;;15.30;62.04
20624;BME280;10471;42.736;23.346;2023-04-15T08:36:29;95031.97;;;15.19;61.81
20624;BME280;10471;42.736;23.346;2023-04-15T08:38:55;95025.06;;;15.18;64.36
20624;BME280;10471;42.736;23.346;2023-04-15T08:41:22;95035.81;;;14.96;62.52
20624;BME280;10471;42.736;23.346;2023-04-15T08:44:02;95023.97;;;15.02;65.34
20624;BME280;10471;42.736;23.346;2023-04-15T08:46:30;95013.84;;;15.04;66.16
20624;BME280;10471;42.736;23.346;2023-04-15T08:48:57;95013.69;;;15.09;61.97
20624;BME280;10471;42.736;23.346;2023-04-15T08:51:23;95022.13;;;15.11;61.63
20624;BME280;10471;42.736;23.346;2023-04-15T08:53:49;95017.72;;;14.90;61.32
20624;BME280;10471;42.736;23.346;2023-04-15T08:56:15;95007.88;;;14.99;64.19
20624;BME280;10471;42.736;23.346;2023-04-15T08:58:43;95007.13;;;15.15;66.31
20624;BME280;10471;42.736;23.346;2023-04-15T09:01:10;95007.31;;;15.35;60.37
20624;BME280;10471;42.736;23.346;2023-04-15T09:03:37;95004.97;;;15.51;62.43
20624;BME280;10471;42.736;23.346;2023-04-15T09:06:04;95008.53;;;15.46;59.01
20624;BME280;10471;42.736;23.346;2023-04-15T09:08:30;95000.91;;;15.45;57.19
20624;BME280;10471;42.736;23.346;2023-04-15T09:10:56;95008.22;;;15.56;62.04
20624;BME280;10471;42.736;23.346;2023-04-15T09:13:21;95003.06;;;15.68;60.55
20624;BME280;10471;42.736;23.346;2023-04-15T09:15:47;95003.94;;;15.97;59.43
20624;BME280;10471;42.736;23.346;2023-04-15T09:18:26;94990.84;;;16.38;54.10
20624;BME280;10471;42.736;23.346;2023-04-15T09:20:52;94983.19;;;16.65;54.18
20624;BME280;10471;42.736;23.346;2023-04-15T09:23:18;94982.06;;;16.95;54.68
20624;BME280;10471;42.736;23.346;2023-04-15T09:25:44;94975.84;;;17.11;50.19
20624;BME280;10471;42.736;23.346;2023-04-15T09:28:09;94986.22;;;17.05;45.64
20624;BME280;10471;42.736;23.346;2023-04-15T09:30:35;94982.84;;;16.96;47.20
20624;BME280;10471;42.736;23.346;2023-04-15T09:33:02;94989.53;;;16.52;47.92
20624;BME280;10471;42.736;23.346;2023-04-15T09:35:32;94975.69;;;16.88;48.60
20624;BME280;10471;42.736;23.346;2023-04-15T09:38:08;94983.94;;;16.95;45.53
20624;BME280;10471;42.736;23.346;2023-04-15T09:40:40;94986.22;;;17.05;46.84
20624;BME280;10471;42.736;23.346;2023-04-15T09:43:07;94983.25;;;17.26;45.81
20624;BME280;10471;42.736;23.346;2023-04-15T09:45:34;94980.94;;;17.57;46.44
20624;BME280;10471;42.736;23.346;2023-04-15T09:48:33;94987.53;;;18.04;46.07
20624;BME280;10471;42.736;23.346;2023-04-15T09:51:00;94979.03;;;18.22;45.54
20624;BME280;10471;42.736;23.346;2023-04-15T09:53:26;94988.88;;;18.10;43.38
20624;BME280;10471;42.736;23.346;2023-04-15T09:55:56;94977.34;;;18.18;43.78
20624;BME280;10471;42.736;23.346;2023-04-15T09:58:24;94981.59;;;18.19;42.67
20624;BME280;10471;42.736;23.346;2023-04-15T10:00:52;94972.72;;;18.27;45.22
20624;BME280;10471;42.736;23.346;2023-04-15T10:05:46;94983.38;;;18.39;42.38
20624;BME280;10471;42.736;23.346;2023-04-15T10:08:12;94986.94;;;18.54;41.46
20624;BME280;10471;42.736;23.346;2023-04-15T10:10:38;94995.19;;;18.26;41.11
20624;BME280;10471;42.736;23.346;2023-04-15T10:13:04;94979.84;;;18.46;41.02
20624;BME280;10471;42.736;23.346;2023-04-15T10:15:31;94976.16;;;18.63;40.08
20624;BME280;10471;42.736;23.346;2023-04-15T10:17:59;94965.38;;;18.71;41.40
20624;BME280;10471;42.736;23.346;2023-04-15T10:20:25;94966.34;;;19.03;41.80
20624;BME280;10471;42.736;23.346;2023-04-15T10:22:52;94967.38;;;19.37;39.99
20624;BME280;10471;42.736;23.346;2023-04-15T10:25:18;94966.41;;;19.57;36.82
20624;BME280;10471;42.736;23.346;2023-04-15T10:27:44;94947.22;;;19.67;38.11
20624;BME280;10471;42.736;23.346;2023-04-15T10:30:09;94941.00;;;19.78;38.87
20624;BME280;10471;42.736;23.346;2023-04-15T10:32:39;94943.16;;;20.00;38.73
20624;BME280;10471;42.736;23.346;2023-04-15T10:35:05;94944.34;;;19.87;39.59
20624;BME280;10471;42.736;23.346;2023-04-15T10:37:37;94940.31;;;20.09;39.09
20624;BME280;10471;42.736;23.346;2023-04-15T10:40:28;94939.38;;;20.01;37.50
20624;BME280;10471;42.736;23.346;2023-04-15T10:42:56;94941.97;;;19.71;38.38
20624;BME280;10471;42.736;23.346;2023-04-15T10:45:24;94939.84;;;19.91;39.03
20624;BME280;10471;42.736;23.346;2023-04-15T10:47:55;94947.84;;;20.03;36.80
20624;BME280;10471;42.736;23.346;2023-04-15T10:50:21;94943.09;;;20.12;37.07
20624;BME280;10471;42.736;23.346;2023-04-15T10:52:50;94940.34;;;19.81;35.98
20624;BME280;10471;42.736;23.346;2023-04-15T10:55:22;94937.91;;;19.76;36.01
20624;BME280;10471;42.736;23.346;2023-04-15T10:57:57;94931.06;;;20.06;37.42
20624;BME280;10471;42.736;23.346;2023-04-15T11:00:31;94928.75;;;20.20;35.22
20624;BME280;10471;42.736;23.346;2023-04-15T11:03:07;94922.06;;;19.56;36.24
20624;BME280;10471;42.736;23.346;2023-04-15T11:08:07;94930.09;;;19.29;36.87
20624;BME280;10471;42.736;23.346;2023-04-15T11:18:20;94934.50;;;19.91;38.75
20624;BME280;10471;42.736;23.346;2023-04-15T11:20:50;94928.41;;;20.22;36.40
20624;BME280;10471;42.736;23.346;2023-04-15T11:23:26;94925.91;;;20.44;35.87
20624;BME280;10471;42.736;23.346;2023-04-15T11:25:54;94925.97;;;20.78;34.81
20624;BME280;10471;42.736;23.346;2023-04-15T11:28:19;94926.75;;;20.48;34.45
20624;BME280;10471;42.736;23.346;2023-04-15T11:30:45;94922.69;;;20.54;35.97
20624;BME280;10471;42.736;23.346;2023-04-15T11:33:11;94925.69;;;20.68;34.60
20624;BME280;10471;42.736;23.346;2023-04-15T11:35:36;94929.78;;;20.16;34.08
20624;BME280;10471;42.736;23.346;2023-04-15T11:38:08;94924.78;;;20.30;34.11
20624;BME280;10471;42.736;23.346;2023-04-15T11:40:35;94925.41;;;20.23;34.56
20624;BME280;10471;42.736;23.346;2023-04-15T11:43:05;94915.19;;;20.44;34.84
20624;BME280;10471;42.736;23.346;2023-04-15T11:45:31;94913.91;;;20.07;33.83
20624;BME280;10471;42.736;23.346;2023-04-15T11:48:11;94913.31;;;20.29;34.62
20624;BME280;10471;42.736;23.346;2023-04-15T11:50:38;94914.91;;;19.17;33.11
20624;BME280;10471;42.736;23.346;2023-04-15T11:53:08;94894.03;;;19.50;35.07
20624;BME280;10471;42.736;23.346;2023-04-15T11:55:49;94886.59;;;19.44;34.26
20624;BME280;10471;42.736;23.346;2023-04-15T11:58:19;94878.63;;;19.74;35.66
20624;BME280;10471;42.736;23.346;2023-04-15T12:06:05;94889.72;;;20.35;36.53
20624;BME280;10471;42.736;23.346;2023-04-15T12:09:09;94887.84;;;21.04;35.24
20624;BME280;10471;42.736;23.346;2023-04-15T12:11:40;94888.97;;;21.40;34.81
20624;BME280;10471;42.736;23.346;2023-04-15T12:16:33;94893.06;;;21.15;33.37
20624;BME280;10471;42.736;23.346;2023-04-15T12:19:00;94892.38;;;21.56;33.28
20624;BME280;10471;42.736;23.346;2023-04-15T12:21:39;94905.47;;;21.80;32.19
20624;BME280;10471;42.736;23.346;2023-04-15T12:24:06;94899.66;;;21.56;32.03
20624;BME280;10471;42.736;23.346;2023-04-15T12:26:56;94894.28;;;20.99;32.82
20624;BME280;10471;42.736;23.346;2023-04-15T12:29:27;94902.38;;;21.21;35.14
20624;BME280;10471;42.736;23.346;2023-04-15T12:37:00;94909.84;;;21.50;34.48
20624;BME280;10471;42.736;23.346;2023-04-15T12:39:28;94906.97;;;21.21;32.72
20624;BME280;10471;42.736;23.346;2023-04-15T12:41:54;94899.25;;;20.82;30.78
20624;BME280;10471;42.736;23.346;2023-04-15T12:44:22;94904.06;;;20.92;31.16
20624;BME280;10471;42.736;23.346;2023-04-15T12:46:48;94901.09;;;20.97;33.56
20624;BME280;10471;42.736;23.346;2023-04-15T12:49:14;94903.59;;;21.05;32.37
20624;BME280;10471;42.736;23.346;2023-04-15T12:51:40;94895.03;;;21.18;31.75
20624;BME280;10471;42.736;23.346;2023-04-15T12:54:06;94898.59;;;20.54;31.68
20624;BME280;10471;42.736;23.346;2023-04-15T12:56:31;94908.38;;;20.46;32.39
20624;BME280;10471;42.736;23.346;2023-04-15T12:58:57;94905.53;;;20.24;32.94
20624;BME280;10471;42.736;23.346;2023-04-15T13:01:22;94901.13;;;20.32;32.44
20624;BME280;10471;42.736;23.346;2023-04-15T13:03:47;94912.78;;;20.39;32.06
20624;BME280;10471;42.736;23.346;2023-04-15T13:06:15;94906.44;;;20.47;32.29
20624;BME280;10471;42.736;23.346;2023-04-15T13:08:40;94900.81;;;20.52;32.82
20624;BME280;10471;42.736;23.346;2023-04-15T13:11:06;94904.97;;;20.65;31.55